sensor_id;sensor_type;location;lat;lon;timestamp;P1;durP1;ratioP1;P2;durP2;ratioP2
67065;SDS011;53978;43.846;25.952;2023-07-24T00:02:12;2.95;;;2.65;;
67065;SDS011;53978;43.846;25.952;2023-07-24T00:04:38;3.38;;;2.60;;
67065;SDS011;53978;43.846;25.952;2023-07-24T00:07:04;3.03;;;2.72;;
67065;SDS011;53978;43.846;25.952;2023-07-24T00:09:29;2.92;;;2.67;;
67065;SDS011;53978;43.846;25.952;2023-07-24T00:11:55;3.22;;;2.92;;
67065;SDS011;53978;43.846;25.952;2023-07-24T00:14:20;5.30;;;3.08;;
67065;SDS011;53978;43.846;25.952;2023-07-24T00:16:45;4.20;;;3.25;;
67065;SDS011;53978;43.846;25.952;2023-07-24T00:19:11;5.28;;;3.38;;
67065;SDS011;53978;43.846;25.952;2023-07-24T00:21:36;4.90;;;3.45;;
67065;SDS011;53978;43.846;25.952;2023-07-24T00:24:02;4.25;;;3.45;;
67065;SDS011;53978;43.846;25.952;2023-07-24T00:26:27;4.72;;;3.85;;
67065;SDS011;53978;43.846;25.952;2023-07-24T00:28:52;3.53;;;3.22;;
67065;SDS011;53978;43.846;25.952;2023-07-24T00:31:18;5.75;;;3.65;;
67065;SDS011;53978;43.846;25.952;2023-07-24T00:33:43;4.00;;;3.45;;
67065;SDS011;53978;43.846;25.952;2023-07-24T00:36:09;3.67;;;3.30;;
67065;SDS011;53978;43.846;25.952;2023-07-24T00:38:34;5.03;;;3.33;;
67065;SDS011;53978;43.846;25.952;2023-07-24T00:40:59;3.40;;;3.03;;
67065;SDS011;53978;43.846;25.952;2023-07-24T00:43:25;3.60;;;3.28;;
67065;SDS011;53978;43.846;25.952;2023-07-24T00:45:50;4.40;;;3.85;;
67065;SDS011;53978;43.846;25.952;2023-07-24T00:48:16;5.45;;;3.72;;
67065;SDS011;53978;43.846;25.952;2023-07-24T00:50:41;7.05;;;3.38;;
67065;SDS011;53978;43.846;25.952;2023-07-24T00:53:07;4.32;;;3.28;;
67065;SDS011;53978;43.846;25.952;2023-07-24T00:55:33;8.13;;;3.40;;
67065;SDS011;53978;43.846;25.952;2023-07-24T00:57:58;6.35;;;3.45;;
67065;SDS011;53978;43.846;25.952;2023-07-24T01:00:25;3.97;;;3.30;;
67065;SDS011;53978;43.846;25.952;2023-07-24T01:02:50;5.25;;;3.17;;
67065;SDS011;53978;43.846;25.952;2023-07-24T01:05:16;8.85;;;3.58;;
67065;SDS011;53978;43.846;25.952;2023-07-24T01:07:42;7.03;;;3.13;;
67065;SDS011;53978;43.846;25.952;2023-07-24T01:10:07;5.97;;;3.38;;
67065;SDS011;53978;43.846;25.952;2023-07-24T01:12:39;3.30;;;3.00;;
67065;SDS011;53978;43.846;25.952;2023-07-24T01:15:24;2.72;;;2.53;;
67065;SDS011;53978;43.846;25.952;2023-07-24T01:17:59;4.05;;;2.97;;
67065;SDS011;53978;43.846;25.952;2023-07-24T01:20:26;3.80;;;3.10;;
67065;SDS011;53978;43.846;25.952;2023-07-24T01:27:54;3.35;;;2.80;;
67065;SDS011;53978;43.846;25.952;2023-07-24T01:30:19;3.70;;;2.83;;
67065;SDS011;53978;43.846;25.952;2023-07-24T01:32:46;5.53;;;2.97;;
67065;SDS011;53978;43.846;25.952;2023-07-24T01:35:12;4.45;;;3.30;;
67065;SDS011;53978;43.846;25.952;2023-07-24T01:37:37;5.72;;;3.20;;
67065;SDS011;53978;43.846;25.952;2023-07-24T01:40:06;4.75;;;3.05;;
67065;SDS011;53978;43.846;25.952;2023-07-24T01:42:32;3.17;;;2.88;;
67065;SDS011;53978;43.846;25.952;2023-07-24T01:44:58;4.50;;;3.17;;
67065;SDS011;53978;43.846;25.952;2023-07-24T01:47:24;5.57;;;3.10;;
67065;SDS011;53978;43.846;25.952;2023-07-24T01:49:49;3.40;;;3.10;;
67065;SDS011;53978;43.846;25.952;2023-07-24T01:52:15;4.25;;;3.10;;
67065;SDS011;53978;43.846;25.952;2023-07-24T01:54:40;3.95;;;3.10;;
67065;SDS011;53978;43.846;25.952;2023-07-24T01:57:06;3.42;;;3.13;;
67065;SDS011;53978;43.846;25.952;2023-07-24T01:59:31;3.78;;;3.30;;
67065;SDS011;53978;43.846;25.952;2023-07-24T02:01:56;3.38;;;2.97;;
67065;SDS011;53978;43.846;25.952;2023-07-24T02:04:22;4.88;;;3.10;;
67065;SDS011;53978;43.846;25.952;2023-07-24T02:06:50;5.63;;;3.10;;
67065;SDS011;53978;43.846;25.952;2023-07-24T02:09:19;3.90;;;3.13;;
67065;SDS011;53978;43.846;25.952;2023-07-24T02:11:44;5.97;;;2.95;;
67065;SDS011;53978;43.846;25.952;2023-07-24T02:14:11;3.40;;;3.10;;
67065;SDS011;53978;43.846;25.952;2023-07-24T02:16:37;4.88;;;3.08;;
67065;SDS011;53978;43.846;25.952;2023-07-24T02:19:02;8.07;;;3.25;;
67065;SDS011;53978;43.846;25.952;2023-07-24T02:21:28;4.72;;;2.97;;
67065;SDS011;53978;43.846;25.952;2023-07-24T02:23:53;4.28;;;3.50;;
67065;SDS011;53978;43.846;25.952;2023-07-24T02:26:18;8.20;;;2.90;;
67065;SDS011;53978;43.846;25.952;2023-07-24T02:28:44;4.63;;;3.30;;
67065;SDS011;53978;43.846;25.952;2023-07-24T02:31:09;3.63;;;3.20;;
67065;SDS011;53978;43.846;25.952;2023-07-24T02:33:35;4.18;;;3.47;;
67065;SDS011;53978;43.846;25.952;2023-07-24T02:36:00;4.78;;;3.00;;
67065;SDS011;53978;43.846;25.952;2023-07-24T02:38:26;3.70;;;2.90;;
67065;SDS011;53978;43.846;25.952;2023-07-24T02:40:51;4.18;;;3.05;;
67065;SDS011;53978;43.846;25.952;2023-07-24T02:43:17;5.32;;;3.20;;
67065;SDS011;53978;43.846;25.952;2023-07-24T02:45:42;3.33;;;3.03;;
67065;SDS011;53978;43.846;25.952;2023-07-24T02:48:07;3.60;;;3.20;;
67065;SDS011;53978;43.846;25.952;2023-07-24T02:50:33;4.03;;;3.15;;
67065;SDS011;53978;43.846;25.952;2023-07-24T02:52:58;4.40;;;3.20;;
67065;SDS011;53978;43.846;25.952;2023-07-24T02:55:24;7.88;;;3.13;;
67065;SDS011;53978;43.846;25.952;2023-07-24T02:57:50;6.70;;;3.38;;
67065;SDS011;53978;43.846;25.952;2023-07-24T03:00:15;4.10;;;3.15;;
67065;SDS011;53978;43.846;25.952;2023-07-24T03:02:40;6.40;;;3.22;;
67065;SDS011;53978;43.846;25.952;2023-07-24T03:05:06;7.10;;;3.50;;
67065;SDS011;53978;43.846;25.952;2023-07-24T03:07:32;3.58;;;3.20;;
67065;SDS011;53978;43.846;25.952;2023-07-24T03:09:57;5.22;;;3.67;;
67065;SDS011;53978;43.846;25.952;2023-07-24T03:12:23;6.57;;;3.55;;
67065;SDS011;53978;43.846;25.952;2023-07-24T03:14:48;6.22;;;3.45;;
67065;SDS011;53978;43.846;25.952;2023-07-24T03:17:14;5.18;;;3.72;;
67065;SDS011;53978;43.846;25.952;2023-07-24T03:19:40;5.82;;;3.63;;
67065;SDS011;53978;43.846;25.952;2023-07-24T03:22:06;6.38;;;3.30;;
67065;SDS011;53978;43.846;25.952;2023-07-24T03:24:31;9.02;;;3.88;;
67065;SDS011;53978;43.846;25.952;2023-07-24T03:26:56;8.40;;;3.67;;
67065;SDS011;53978;43.846;25.952;2023-07-24T03:29:22;4.93;;;3.80;;
67065;SDS011;53978;43.846;25.952;2023-07-24T03:31:47;9.13;;;4.10;;
67065;SDS011;53978;43.846;25.952;2023-07-24T03:34:13;9.27;;;3.78;;
67065;SDS011;53978;43.846;25.952;2023-07-24T03:36:38;7.45;;;3.50;;
67065;SDS011;53978;43.846;25.952;2023-07-24T03:39:07;12.82;;;4.32;;
67065;SDS011;53978;43.846;25.952;2023-07-24T03:41:34;16.25;;;4.25;;
67065;SDS011;53978;43.846;25.952;2023-07-24T03:43:59;8.73;;;3.90;;
67065;SDS011;53978;43.846;25.952;2023-07-24T03:46:25;9.93;;;3.90;;
67065;SDS011;53978;43.846;25.952;2023-07-24T03:48:50;13.40;;;3.95;;
67065;SDS011;53978;43.846;25.952;2023-07-24T03:51:16;6.15;;;3.28;;
67065;SDS011;53978;43.846;25.952;2023-07-24T03:53:41;9.05;;;3.67;;
67065;SDS011;53978;43.846;25.952;2023-07-24T03:56:06;8.10;;;3.97;;
67065;SDS011;53978;43.846;25.952;2023-07-24T03:58:32;6.32;;;3.45;;
67065;SDS011;53978;43.846;25.952;2023-07-24T04:00:57;7.32;;;3.70;;
67065;SDS011;53978;43.846;25.952;2023-07-24T04:03:23;7.70;;;3.25;;
67065;SDS011;53978;43.846;25.952;2023-07-24T04:05:48;5.15;;;3.78;;
67065;SDS011;53978;43.846;25.952;2023-07-24T04:08:14;5.35;;;4.13;;
67065;SDS011;53978;43.846;25.952;2023-07-24T04:10:39;7.95;;;3.70;;
67065;SDS011;53978;43.846;25.952;2023-07-24T04:13:04;16.92;;;4.10;;
67065;SDS011;53978;43.846;25.952;2023-07-24T04:15:30;12.52;;;4.07;;
67065;SDS011;53978;43.846;25.952;2023-07-24T04:17:55;8.32;;;3.83;;
67065;SDS011;53978;43.846;25.952;2023-07-24T04:20:20;6.65;;;3.33;;
67065;SDS011;53978;43.846;25.952;2023-07-24T04:22:46;5.93;;;3.47;;
67065;SDS011;53978;43.846;25.952;2023-07-24T04:25:11;4.15;;;3.42;;
67065;SDS011;53978;43.846;25.952;2023-07-24T04:27:37;14.07;;;3.55;;
67065;SDS011;53978;43.846;25.952;2023-07-24T04:30:02;12.85;;;4.15;;
67065;SDS011;53978;43.846;25.952;2023-07-24T04:32:28;13.35;;;3.95;;
67065;SDS011;53978;43.846;25.952;2023-07-24T04:34:53;7.40;;;3.88;;
67065;SDS011;53978;43.846;25.952;2023-07-24T04:37:18;6.80;;;3.78;;
67065;SDS011;53978;43.846;25.952;2023-07-24T04:39:44;6.90;;;3.53;;
67065;SDS011;53978;43.846;25.952;2023-07-24T04:42:09;5.28;;;3.58;;
67065;SDS011;53978;43.846;25.952;2023-07-24T04:44:35;31.02;;;6.85;;
67065;SDS011;53978;43.846;25.952;2023-07-24T04:47:00;20.08;;;4.55;;
67065;SDS011;53978;43.846;25.952;2023-07-24T04:49:30;21.40;;;4.55;;
67065;SDS011;53978;43.846;25.952;2023-07-24T04:51:57;7.63;;;3.58;;
67065;SDS011;53978;43.846;25.952;2023-07-24T04:54:22;6.40;;;3.50;;
67065;SDS011;53978;43.846;25.952;2023-07-24T04:56:48;8.63;;;3.90;;
67065;SDS011;53978;43.846;25.952;2023-07-24T04:59:13;12.68;;;3.58;;
67065;SDS011;53978;43.846;25.952;2023-07-24T05:01:38;10.27;;;4.05;;
67065;SDS011;53978;43.846;25.952;2023-07-24T05:04:04;10.35;;;4.00;;
67065;SDS011;53978;43.846;25.952;2023-07-24T05:06:29;4.72;;;3.45;;
67065;SDS011;53978;43.846;25.952;2023-07-24T05:08:55;5.95;;;3.88;;
67065;SDS011;53978;43.846;25.952;2023-07-24T05:11:20;10.20;;;3.88;;
67065;SDS011;53978;43.846;25.952;2023-07-24T05:13:45;13.77;;;4.00;;
67065;SDS011;53978;43.846;25.952;2023-07-24T05:16:11;8.25;;;4.15;;
67065;SDS011;53978;43.846;25.952;2023-07-24T05:18:36;17.95;;;6.10;;
67065;SDS011;53978;43.846;25.952;2023-07-24T05:21:02;8.13;;;4.43;;
67065;SDS011;53978;43.846;25.952;2023-07-24T05:23:27;11.02;;;3.85;;
67065;SDS011;53978;43.846;25.952;2023-07-24T05:25:56;5.90;;;3.58;;
67065;SDS011;53978;43.846;25.952;2023-07-24T05:28:26;4.25;;;3.80;;
67065;SDS011;53978;43.846;25.952;2023-07-24T05:30:54;10.38;;;3.60;;
67065;SDS011;53978;43.846;25.952;2023-07-24T05:33:20;6.70;;;3.78;;
67065;SDS011;53978;43.846;25.952;2023-07-24T05:35:45;36.08;;;4.75;;
67065;SDS011;53978;43.846;25.952;2023-07-24T05:38:11;15.80;;;4.28;;
67065;SDS011;53978;43.846;25.952;2023-07-24T05:40:36;12.90;;;4.03;;
67065;SDS011;53978;43.846;25.952;2023-07-24T05:43:02;6.75;;;3.92;;
67065;SDS011;53978;43.846;25.952;2023-07-24T05:45:28;7.53;;;3.50;;
67065;SDS011;53978;43.846;25.952;2023-07-24T05:47:54;9.88;;;3.58;;
67065;SDS011;53978;43.846;25.952;2023-07-24T05:50:19;9.77;;;3.70;;
67065;SDS011;53978;43.846;25.952;2023-07-24T05:52:45;21.10;;;5.25;;
67065;SDS011;53978;43.846;25.952;2023-07-24T05:55:10;5.57;;;3.63;;
67065;SDS011;53978;43.846;25.952;2023-07-24T05:57:36;4.15;;;3.10;;
67065;SDS011;53978;43.846;25.952;2023-07-24T06:00:02;4.45;;;3.00;;
67065;SDS011;53978;43.846;25.952;2023-07-24T06:02:29;5.80;;;3.40;;
67065;SDS011;53978;43.846;25.952;2023-07-24T06:04:54;7.45;;;3.83;;
67065;SDS011;53978;43.846;25.952;2023-07-24T06:07:19;6.35;;;3.92;;
67065;SDS011;53978;43.846;25.952;2023-07-24T06:09:45;4.70;;;3.60;;
67065;SDS011;53978;43.846;25.952;2023-07-24T06:12:10;5.10;;;3.63;;
67065;SDS011;53978;43.846;25.952;2023-07-24T06:14:35;5.80;;;3.80;;
67065;SDS011;53978;43.846;25.952;2023-07-24T06:17:01;4.78;;;3.63;;
67065;SDS011;53978;43.846;25.952;2023-07-24T06:19:26;7.30;;;3.53;;
67065;SDS011;53978;43.846;25.952;2023-07-24T06:21:52;6.15;;;3.70;;
67065;SDS011;53978;43.846;25.952;2023-07-24T06:24:17;4.72;;;3.80;;
67065;SDS011;53978;43.846;25.952;2023-07-24T06:26:43;4.90;;;3.35;;
67065;SDS011;53978;43.846;25.952;2023-07-24T06:29:08;5.15;;;3.78;;
67065;SDS011;53978;43.846;25.952;2023-07-24T06:31:33;5.88;;;3.53;;
67065;SDS011;53978;43.846;25.952;2023-07-24T06:33:59;5.57;;;3.60;;
67065;SDS011;53978;43.846;25.952;2023-07-24T06:36:24;8.45;;;3.42;;
67065;SDS011;53978;43.846;25.952;2023-07-24T06:38:50;3.50;;;3.20;;
67065;SDS011;53978;43.846;25.952;2023-07-24T06:41:15;6.28;;;3.50;;
67065;SDS011;53978;43.846;25.952;2023-07-24T06:43:41;4.38;;;3.35;;
67065;SDS011;53978;43.846;25.952;2023-07-24T06:46:07;7.30;;;3.33;;
67065;SDS011;53978;43.846;25.952;2023-07-24T06:48:32;4.60;;;3.63;;
67065;SDS011;53978;43.846;25.952;2023-07-24T06:50:57;3.83;;;3.40;;
67065;SDS011;53978;43.846;25.952;2023-07-24T06:53:23;8.40;;;3.55;;
67065;SDS011;53978;43.846;25.952;2023-07-24T06:55:48;4.50;;;3.42;;
67065;SDS011;53978;43.846;25.952;2023-07-24T06:58:14;5.30;;;3.22;;
67065;SDS011;53978;43.846;25.952;2023-07-24T07:00:39;4.40;;;3.30;;
67065;SDS011;53978;43.846;25.952;2023-07-24T07:03:04;5.70;;;3.45;;
67065;SDS011;53978;43.846;25.952;2023-07-24T07:05:31;5.22;;;3.33;;
67065;SDS011;53978;43.846;25.952;2023-07-24T07:07:57;10.30;;;3.30;;
67065;SDS011;53978;43.846;25.952;2023-07-24T07:10:22;4.78;;;3.30;;
67065;SDS011;53978;43.846;25.952;2023-07-24T07:12:48;6.50;;;3.60;;
67065;SDS011;53978;43.846;25.952;2023-07-24T07:15:13;5.70;;;3.58;;
67065;SDS011;53978;43.846;25.952;2023-07-24T07:17:39;5.40;;;3.35;;
67065;SDS011;53978;43.846;25.952;2023-07-24T07:20:05;6.22;;;3.22;;
67065;SDS011;53978;43.846;25.952;2023-07-24T07:22:31;6.65;;;3.30;;
67065;SDS011;53978;43.846;25.952;2023-07-24T07:24:56;4.03;;;3.10;;
67065;SDS011;53978;43.846;25.952;2023-07-24T07:27:22;5.78;;;3.10;;
67065;SDS011;53978;43.846;25.952;2023-07-24T07:29:47;4.63;;;3.30;;
67065;SDS011;53978;43.846;25.952;2023-07-24T07:32:12;4.47;;;3.30;;
67065;SDS011;53978;43.846;25.952;2023-07-24T07:34:38;6.05;;;3.05;;
67065;SDS011;53978;43.846;25.952;2023-07-24T07:37:04;3.97;;;3.08;;
67065;SDS011;53978;43.846;25.952;2023-07-24T07:39:30;3.90;;;2.90;;
67065;SDS011;53978;43.846;25.952;2023-07-24T07:41:56;4.28;;;2.80;;
67065;SDS011;53978;43.846;25.952;2023-07-24T07:44:21;3.78;;;3.10;;
67065;SDS011;53978;43.846;25.952;2023-07-24T07:46:47;6.18;;;3.20;;
67065;SDS011;53978;43.846;25.952;2023-07-24T07:49:12;3.08;;;2.78;;
67065;SDS011;53978;43.846;25.952;2023-07-24T07:51:38;4.75;;;2.95;;
67065;SDS011;53978;43.846;25.952;2023-07-24T07:54:03;2.88;;;2.60;;
67065;SDS011;53978;43.846;25.952;2023-07-24T07:56:29;4.97;;;2.65;;
67065;SDS011;53978;43.846;25.952;2023-07-24T07:58:54;3.40;;;3.10;;
67065;SDS011;53978;43.846;25.952;2023-07-24T08:01:20;8.88;;;3.58;;
67065;SDS011;53978;43.846;25.952;2023-07-24T08:03:45;3.55;;;2.67;;
67065;SDS011;53978;43.846;25.952;2023-07-24T08:06:10;8.80;;;4.55;;
67065;SDS011;53978;43.846;25.952;2023-07-24T08:08:37;4.35;;;3.53;;
67065;SDS011;53978;43.846;25.952;2023-07-24T08:11:06;5.97;;;2.90;;
67065;SDS011;53978;43.846;25.952;2023-07-24T08:13:31;4.70;;;2.42;;
67065;SDS011;53978;43.846;25.952;2023-07-24T08:15:57;4.70;;;2.88;;
67065;SDS011;53978;43.846;25.952;2023-07-24T08:18:24;2.70;;;2.50;;
67065;SDS011;53978;43.846;25.952;2023-07-24T08:20:50;2.40;;;2.20;;
67065;SDS011;53978;43.846;25.952;2023-07-24T08:23:15;6.47;;;2.67;;
67065;SDS011;53978;43.846;25.952;2023-07-24T08:25:50;2.97;;;2.10;;
67065;SDS011;53978;43.846;25.952;2023-07-24T08:28:19;4.40;;;2.10;;
67065;SDS011;53978;43.846;25.952;2023-07-24T08:30:44;3.63;;;2.33;;
67065;SDS011;53978;43.846;25.952;2023-07-24T08:33:11;4.70;;;2.22;;
67065;SDS011;53978;43.846;25.952;2023-07-24T08:35:37;2.65;;;2.10;;
67065;SDS011;53978;43.846;25.952;2023-07-24T08:38:02;4.72;;;2.22;;
67065;SDS011;53978;43.846;25.952;2023-07-24T08:40:27;3.08;;;2.17;;
67065;SDS011;53978;43.846;25.952;2023-07-24T08:42:53;2.15;;;1.95;;
67065;SDS011;53978;43.846;25.952;2023-07-24T08:45:19;4.97;;;2.63;;
67065;SDS011;53978;43.846;25.952;2023-07-24T08:47:45;5.18;;;3.20;;
67065;SDS011;53978;43.846;25.952;2023-07-24T08:50:10;2.55;;;1.90;;
67065;SDS011;53978;43.846;25.952;2023-07-24T08:52:40;3.35;;;1.80;;
67065;SDS011;53978;43.846;25.952;2023-07-24T08:55:07;2.13;;;1.85;;
67065;SDS011;53978;43.846;25.952;2023-07-24T08:57:33;8.60;;;2.13;;
67065;SDS011;53978;43.846;25.952;2023-07-24T08:59:59;3.63;;;2.30;;
67065;SDS011;53978;43.846;25.952;2023-07-24T09:02:28;3.50;;;2.38;;
67065;SDS011;53978;43.846;25.952;2023-07-24T09:04:53;3.17;;;2.00;;
67065;SDS011;53978;43.846;25.952;2023-07-24T09:07:19;2.90;;;2.10;;
67065;SDS011;53978;43.846;25.952;2023-07-24T09:09:46;2.40;;;2.20;;
67065;SDS011;53978;43.846;25.952;2023-07-24T09:12:14;2.90;;;2.20;;
67065;SDS011;53978;43.846;25.952;2023-07-24T09:14:40;4.13;;;2.15;;
67065;SDS011;53978;43.846;25.952;2023-07-24T09:17:07;3.38;;;2.22;;
67065;SDS011;53978;43.846;25.952;2023-07-24T09:19:36;2.80;;;2.13;;
67065;SDS011;53978;43.846;25.952;2023-07-24T09:24:49;2.70;;;2.00;;
67065;SDS011;53978;43.846;25.952;2023-07-24T09:27:16;3.45;;;2.00;;
67065;SDS011;53978;43.846;25.952;2023-07-24T09:29:41;5.40;;;2.45;;
67065;SDS011;53978;43.846;25.952;2023-07-24T09:32:07;2.70;;;2.08;;
67065;SDS011;53978;43.846;25.952;2023-07-24T09:34:33;2.38;;;1.75;;
67065;SDS011;53978;43.846;25.952;2023-07-24T09:36:58;3.80;;;2.03;;
67065;SDS011;53978;43.846;25.952;2023-07-24T09:39:24;7.35;;;2.30;;
67065;SDS011;53978;43.846;25.952;2023-07-24T09:41:53;2.85;;;1.90;;
67065;SDS011;53978;43.846;25.952;2023-07-24T09:44:19;2.45;;;2.10;;
67065;SDS011;53978;43.846;25.952;2023-07-24T09:46:45;2.40;;;2.20;;
67065;SDS011;53978;43.846;25.952;2023-07-24T09:49:11;1.98;;;1.77;;
67065;SDS011;53978;43.846;25.952;2023-07-24T09:51:36;1.92;;;1.83;;
67065;SDS011;53978;43.846;25.952;2023-07-24T09:54:20;4.13;;;2.00;;
67065;SDS011;53978;43.846;25.952;2023-07-24T09:56:50;2.80;;;2.17;;
67065;SDS011;53978;43.846;25.952;2023-07-24T09:59:15;2.30;;;2.10;;
67065;SDS011;53978;43.846;25.952;2023-07-24T10:01:41;2.25;;;2.05;;
67065;SDS011;53978;43.846;25.952;2023-07-24T10:04:07;2.13;;;1.80;;
67065;SDS011;53978;43.846;25.952;2023-07-24T10:06:33;3.20;;;2.00;;
67065;SDS011;53978;43.846;25.952;2023-07-24T10:08:59;2.58;;;2.20;;
67065;SDS011;53978;43.846;25.952;2023-07-24T10:11:24;3.45;;;2.20;;
67065;SDS011;53978;43.846;25.952;2023-07-24T10:13:50;3.63;;;2.00;;
67065;SDS011;53978;43.846;25.952;2023-07-24T10:16:15;7.30;;;1.90;;
67065;SDS011;53978;43.846;25.952;2023-07-24T10:18:42;3.90;;;2.08;;
67065;SDS011;53978;43.846;25.952;2023-07-24T10:21:10;5.55;;;2.13;;
67065;SDS011;53978;43.846;25.952;2023-07-24T10:23:37;3.25;;;2.10;;
67065;SDS011;53978;43.846;25.952;2023-07-24T10:26:07;3.97;;;2.38;;
67065;SDS011;53978;43.846;25.952;2023-07-24T10:28:34;2.88;;;2.03;;
67065;SDS011;53978;43.846;25.952;2023-07-24T10:31:04;2.88;;;2.10;;
67065;SDS011;53978;43.846;25.952;2023-07-24T10:33:35;4.65;;;2.20;;
67065;SDS011;53978;43.846;25.952;2023-07-24T10:36:07;3.50;;;2.20;;
67065;SDS011;53978;43.846;25.952;2023-07-24T10:38:37;2.70;;;2.20;;
67065;SDS011;53978;43.846;25.952;2023-07-24T10:41:04;2.78;;;1.92;;
67065;SDS011;53978;43.846;25.952;2023-07-24T10:46:38;8.15;;;2.50;;
67065;SDS011;53978;43.846;25.952;2023-07-24T10:49:04;4.75;;;1.95;;
67065;SDS011;53978;43.846;25.952;2023-07-24T10:51:30;7.65;;;2.70;;
67065;SDS011;53978;43.846;25.952;2023-07-24T10:54:00;2.30;;;2.10;;
67065;SDS011;53978;43.846;25.952;2023-07-24T10:56:27;2.33;;;2.10;;
67065;SDS011;53978;43.846;25.952;2023-07-24T10:58:52;3.53;;;1.90;;
67065;SDS011;53978;43.846;25.952;2023-07-24T11:01:18;2.40;;;2.00;;
67065;SDS011;53978;43.846;25.952;2023-07-24T11:03:43;4.15;;;2.40;;
67065;SDS011;53978;43.846;25.952;2023-07-24T11:06:16;2.28;;;2.10;;
67065;SDS011;53978;43.846;25.952;2023-07-24T11:11:18;8.35;;;2.45;;
67065;SDS011;53978;43.846;25.952;2023-07-24T11:13:43;7.13;;;2.28;;
67065;SDS011;53978;43.846;25.952;2023-07-24T11:16:09;3.95;;;2.10;;
67065;SDS011;53978;43.846;25.952;2023-07-24T11:18:43;2.90;;;2.00;;
67065;SDS011;53978;43.846;25.952;2023-07-24T11:21:11;6.93;;;2.47;;
67065;SDS011;53978;43.846;25.952;2023-07-24T11:23:37;5.40;;;2.08;;
67065;SDS011;53978;43.846;25.952;2023-07-24T11:26:03;3.03;;;2.10;;
67065;SDS011;53978;43.846;25.952;2023-07-24T11:28:38;3.30;;;2.50;;
67065;SDS011;53978;43.846;25.952;2023-07-24T11:31:04;4.78;;;2.28;;
67065;SDS011;53978;43.846;25.952;2023-07-24T11:33:30;5.38;;;2.45;;
67065;SDS011;53978;43.846;25.952;2023-07-24T11:35:55;3.58;;;2.40;;
67065;SDS011;53978;43.846;25.952;2023-07-24T11:38:20;5.00;;;2.28;;
67065;SDS011;53978;43.846;25.952;2023-07-24T11:40:46;4.47;;;2.40;;
67065;SDS011;53978;43.846;25.952;2023-07-24T11:43:19;4.05;;;2.30;;
67065;SDS011;53978;43.846;25.952;2023-07-24T11:45:46;3.33;;;2.15;;
67065;SDS011;53978;43.846;25.952;2023-07-24T11:48:17;2.80;;;2.20;;
67065;SDS011;53978;43.846;25.952;2023-07-24T11:50:43;2.70;;;2.08;;
67065;SDS011;53978;43.846;25.952;2023-07-24T11:53:20;7.90;;;2.30;;
67065;SDS011;53978;43.846;25.952;2023-07-24T11:55:47;3.30;;;2.22;;
67065;SDS011;53978;43.846;25.952;2023-07-24T11:58:14;3.45;;;2.30;;
67065;SDS011;53978;43.846;25.952;2023-07-24T12:00:40;4.10;;;2.65;;
67065;SDS011;53978;43.846;25.952;2023-07-24T12:03:06;4.78;;;2.42;;
67065;SDS011;53978;43.846;25.952;2023-07-24T12:05:41;2.65;;;2.30;;
67065;SDS011;53978;43.846;25.952;2023-07-24T12:08:08;4.00;;;2.50;;
67065;SDS011;53978;43.846;25.952;2023-07-24T12:10:35;2.58;;;2.38;;
67065;SDS011;53978;43.846;25.952;2023-07-24T12:13:04;3.05;;;2.47;;
67065;SDS011;53978;43.846;25.952;2023-07-24T12:15:29;13.57;;;2.83;;
67065;SDS011;53978;43.846;25.952;2023-07-24T12:17:55;4.20;;;2.55;;
67065;SDS011;53978;43.846;25.952;2023-07-24T12:20:22;3.85;;;3.40;;
67065;SDS011;53978;43.846;25.952;2023-07-24T12:22:47;2.65;;;2.45;;
67065;SDS011;53978;43.846;25.952;2023-07-24T12:25:13;4.88;;;3.10;;
67065;SDS011;53978;43.846;25.952;2023-07-24T12:27:39;3.08;;;2.58;;
67065;SDS011;53978;43.846;25.952;2023-07-24T12:30:06;3.85;;;2.55;;
67065;SDS011;53978;43.846;25.952;2023-07-24T12:32:32;3.13;;;2.70;;
67065;SDS011;53978;43.846;25.952;2023-07-24T12:34:57;4.05;;;2.45;;
67065;SDS011;53978;43.846;25.952;2023-07-24T12:37:23;6.60;;;3.00;;
67065;SDS011;53978;43.846;25.952;2023-07-24T12:39:48;3.83;;;2.60;;
67065;SDS011;53978;43.846;25.952;2023-07-24T12:42:14;4.80;;;2.70;;
67065;SDS011;53978;43.846;25.952;2023-07-24T12:44:40;3.83;;;2.90;;
67065;SDS011;53978;43.846;25.952;2023-07-24T12:47:06;2.50;;;2.30;;
67065;SDS011;53978;43.846;25.952;2023-07-24T12:49:31;5.95;;;2.75;;
67065;SDS011;53978;43.846;25.952;2023-07-24T12:51:57;8.80;;;2.90;;
67065;SDS011;53978;43.846;25.952;2023-07-24T12:54:22;8.40;;;3.03;;
67065;SDS011;53978;43.846;25.952;2023-07-24T12:56:48;7.63;;;3.20;;
67065;SDS011;53978;43.846;25.952;2023-07-24T12:59:17;3.97;;;2.85;;
67065;SDS011;53978;43.846;25.952;2023-07-24T13:01:43;6.88;;;3.47;;
67065;SDS011;53978;43.846;25.952;2023-07-24T13:04:09;4.10;;;2.95;;
67065;SDS011;53978;43.846;25.952;2023-07-24T13:06:35;5.70;;;2.80;;
67065;SDS011;53978;43.846;25.952;2023-07-24T13:09:00;4.07;;;2.60;;
67065;SDS011;53978;43.846;25.952;2023-07-24T13:11:26;10.75;;;2.92;;
67065;SDS011;53978;43.846;25.952;2023-07-24T13:13:53;3.47;;;3.05;;
67065;SDS011;53978;43.846;25.952;2023-07-24T13:16:18;3.33;;;3.03;;
67065;SDS011;53978;43.846;25.952;2023-07-24T13:18:44;4.72;;;3.00;;
67065;SDS011;53978;43.846;25.952;2023-07-24T13:21:09;4.75;;;2.70;;
67065;SDS011;53978;43.846;25.952;2023-07-24T13:23:35;6.45;;;2.47;;
67065;SDS011;53978;43.846;25.952;2023-07-24T13:26:00;3.00;;;2.70;;
67065;SDS011;53978;43.846;25.952;2023-07-24T13:28:26;6.57;;;2.88;;
67065;SDS011;53978;43.846;25.952;2023-07-24T13:30:51;4.30;;;2.83;;
67065;SDS011;53978;43.846;25.952;2023-07-24T13:33:17;4.45;;;2.78;;
67065;SDS011;53978;43.846;25.952;2023-07-24T13:35:42;7.55;;;3.05;;
67065;SDS011;53978;43.846;25.952;2023-07-24T13:38:08;4.05;;;3.10;;
67065;SDS011;53978;43.846;25.952;2023-07-24T13:40:34;11.85;;;2.72;;
67065;SDS011;53978;43.846;25.952;2023-07-24T13:43:00;15.93;;;3.55;;
67065;SDS011;53978;43.846;25.952;2023-07-24T13:45:25;10.65;;;3.10;;
67065;SDS011;53978;43.846;25.952;2023-07-24T13:47:54;7.40;;;3.78;;
67065;SDS011;53978;43.846;25.952;2023-07-24T13:50:19;3.88;;;3.20;;
67065;SDS011;53978;43.846;25.952;2023-07-24T13:52:45;6.20;;;2.75;;
67065;SDS011;53978;43.846;25.952;2023-07-24T13:55:10;5.50;;;3.40;;
67065;SDS011;53978;43.846;25.952;2023-07-24T13:57:36;9.80;;;3.63;;
67065;SDS011;53978;43.846;25.952;2023-07-24T14:00:01;15.50;;;3.95;;
67065;SDS011;53978;43.846;25.952;2023-07-24T14:02:27;14.07;;;3.78;;
67065;SDS011;53978;43.846;25.952;2023-07-24T14:04:52;4.65;;;3.47;;
67065;SDS011;53978;43.846;25.952;2023-07-24T14:07:18;4.95;;;3.00;;
67065;SDS011;53978;43.846;25.952;2023-07-24T14:09:43;7.40;;;3.63;;
67065;SDS011;53978;43.846;25.952;2023-07-24T14:12:09;4.88;;;4.00;;
67065;SDS011;53978;43.846;25.952;2023-07-24T14:14:34;11.15;;;3.47;;
67065;SDS011;53978;43.846;25.952;2023-07-24T14:17:00;18.80;;;4.28;;
67065;SDS011;53978;43.846;25.952;2023-07-24T14:19:25;10.27;;;3.60;;
67065;SDS011;53978;43.846;25.952;2023-07-24T14:21:51;12.90;;;4.30;;
67065;SDS011;53978;43.846;25.952;2023-07-24T14:24:16;8.57;;;3.50;;
67065;SDS011;53978;43.846;25.952;2023-07-24T14:26:42;6.43;;;3.45;;
67065;SDS011;53978;43.846;25.952;2023-07-24T14:29:09;9.10;;;3.30;;
67065;SDS011;53978;43.846;25.952;2023-07-24T14:31:35;8.60;;;3.80;;
67065;SDS011;53978;43.846;25.952;2023-07-24T14:34:00;4.65;;;3.50;;
67065;SDS011;53978;43.846;25.952;2023-07-24T14:36:26;6.53;;;3.13;;
67065;SDS011;53978;43.846;25.952;2023-07-24T14:38:58;6.83;;;3.00;;
67065;SDS011;53978;43.846;25.952;2023-07-24T14:41:25;14.60;;;3.80;;